bugGPSD - Bugs: bug #52543, gpsd 3.17 missing GNGSA data after...

 
 

bug #52543: gpsd 3.17 missing GNGSA data after a while

Submitted by:  Atsushi Hirano <starstonesoft>
Submitted on:  Tue 28 Nov 2017 12:38:17 AM UTC  
 
Category:  None Severity:  3 - Normal
Item Group:  None Status:  None
Privacy:  Public Assigned to:  None
Open/Closed:  Open

Add a New Comment(Rich Markup)
   

You are not logged in

Please log in, so followups can be emailed to you.

 

Tue 28 Nov 2017 12:38:17 AM UTC, original submission:

Dear Sir,

Good day,
I'm using GPSD 3.17, with u-blox neo-m8n on nano pi neo plus2(Allwinner H5), Ubuntu 16.04.
With gpsd 3.15, all satellite "used:false" was known issue, and thank you for fixing it.
However, with 3.17, seems not solved tottally.
Here is the output of

gpspipe -r | grep GNGSA

$GNGSA,A,3,19,17,09,12,194,28,50,42,,,,,1.61,0.97,1.29*2F
$GNGSA,A,3,66,87,67,,,,,,,,,,1.61,0.97,1.29*10
$GNGSA,A,3,19,17,09,12,194,28,50,42,,,,,1.61,0.97,1.29*2F
$GNGSA,A,3,66,87,67,,,,,,,,,,1.61,0.97,1.29*10
$GNGSA,A,3,19,17,09,12,194,28,50,42,,,,,1.61,0.97,1.29*2F
$GNGSA,A,3,66,87,67,,,,,,,,,,1.61,0.97,1.29*10
$GNGSA,A,3,19,17,09,12,194,28,50,42,,,,,1.61,0.97,1.29*2F
$GNGSA,A,3,66,87,67,,,,,,,,,,1.61,0.97,1.29*10
$GNGSA,A,3,19,17,09,12,194,28,50,42,,,,,1.61,0.97,1.29*2F
$GNGSA,A,3,66,87,67,,,,,,,,,,1.61,0.97,1.29*10
$GNGSA,A,3,19,17,09,12,194,28,50,42,,,,,1.61,0.97,1.29*2F
$GNGSA,A,3,66,87,67,,,,,,,,,,1.61,0.97,1.29*10
$GNGSA,A,3,19,17,09,12,194,28,50,42,,,,,1.61,0.97,1.29*2F
$GNGSA,A,3,66,87,67,,,,,,,,,,1.61,0.97,1.29*10
$GNGSA,A,3,19,17,09,12,194,28,50,42,,,,,1.61,0.97,1.29*2F
$GNGSA,A,3,66,87,67,,,,,,,,,,1.61,0.97,1.29*10
$GNGSA,A,3,19,17,09,12,194,28,50,42,,,,,1.61,0.97,1.29*2F
$GNGSA,A,3,66,87,67,,,,,,,,,,1.61,0.97,1.29*10
$GNGSA,A,3,19,17,09,12,,,,,,,,,5.32,3.60,3.92*11
$GNGSA,A,3,,,,,,,,,,,,,5.32,3.60,3.92*15
$GNGSA,A,3,19,17,09,12,,,,,,,,,5.32,3.59,3.92*1B
$GNGSA,A,3,,,,,,,,,,,,,5.32,3.59,3.92*1F
$GNGSA,A,3,19,17,09,12,,,,,,,,,5.32,3.59,3.92*1B
$GNGSA,A,3,,,,,,,,,,,,,5.32,3.59,3.92*1F
$GNGSA,A,3,19,17,09,12,,,,,,,,,5.32,3.59,3.92*1B
$GNGSA,A,3,,,,,,,,,,,,,5.32,3.59,3.92*1F
$GNGSA,A,3,19,17,09,12,,,,,,,,,5.32,3.59,3.92*1B
$GNGSA,A,3,,,,,,,,,,,,,5.32,3.59,3.92*1F

within a few minutes after power on, some satellite numbers were disappeared from GNGSA data.

To compare this to raw GNGSA data, I uninstall gpsd and reboot, then
cat /dev/ttyACM0

GNGSA,A,3,19,17,09,12,28,42,194,50,02,,,,1.52,0.88,1.24*2E
$GNGSA,A,3,66,87,67,,,,,,,,,,1.52,0.88,1.24*13
$GNGSA,A,3,19,17,09,12,28,42,194,50,02,,,,1.52,0.88,1.24*2E
$GNGSA,A,3,66,87,67,,,,,,,,,,1.52,0.88,1.24*13
$GNGSA,A,3,19,17,09,12,28,42,194,50,02,,,,1.52,0.88,1.24*2E
$GNGSA,A,3,66,87,67,,,,,,,,,,1.52,0.88,1.24*13
$GNGSA,A,3,19,17,09,12,28,42,194,50,02,,,,1.52,0.88,1.24*2E
$GNGSA,A,3,66,87,67,,,,,,,,,,1.52,0.88,1.24*13
$GNGSA,A,3,19,17,09,12,28,42,194,50,02,,,,1.52,0.88,1.24*2E
$GNGSA,A,3,66,87,67,,,,,,,,,,1.52,0.88,1.24*13
$GNGSA,A,3,19,17,09,12,28,42,194,50,02,,,,1.52,0.88,1.24*2E
$GNGSA,A,3,19,17,09,12,28,42,194,50,02,,,,1.52,0.88,1.24*2E
$GNGSA,A,3,66,87,67,,,,,,,,,,1.52,0.88,1.24*13
$GNGSA,A,3,19,17,09,12,28,42,194,50,02,,,,1.52,0.88,1.24*2E
$GNGSA,A,3,66,87,67,,,,,,,,,,1.52,0.88,1.24*13
$GNGSA,A,3,19,17,09,12,28,42,194,50,02,,,,1.52,0.88,1.24*2E
$GNGSA,A,3,19,17,09,12,28,42,194,50,02,,,,1.52,0.88,1.24*2E
$GNGSA,A,3,66,87,67,,,,,,,,,,1.52,0.88,1.24*13

still all satellite numbers are shown.

Would you please investigate on this issue?
Thank you in advance.

Atsushi Hirano <starstonesoft>

 

(Note: upload size limit is set to 16384 kB, after insertion of the required escape characters.)

Attach Files:
   
   
Comment:
   

No files currently attached

 

Depends on the following items: None found

Items that depend on this one: None found

 

Carbon-Copy List
  • -email is unavailable- added by starstonesoft (Submitted the item)
  • -email is unavailable- added by starstonesoft
  •  

    Do you think this task is very important?
    If so, you can add your encouragement to it.
    This task has 0 encouragements so far.

    Only logged-in users can vote.

     

     

     

    Follows 1 latest change.

    Date Changed by Updated Field Previous Value => Replaced by
    2017-11-28 starstonesoft Carbon-Copy- => Added -email is unavailable-

    Back to the top


    Powered by Savane 3.3